sensor_id;sensor_type;location;lat;lon;timestamp;pressure;altitude;pressure_sealevel;temperature;humidity
35419;BME280;21525;41.240;16.500;2023-04-30T00:02:22;101220.22;;;24.25;60.58
35419;BME280;21525;41.240;16.500;2023-04-30T00:04:48;101222.31;;;24.34;61.36
35419;BME280;21525;41.240;16.500;2023-04-30T00:07:13;101218.50;;;24.38;61.97
35419;BME280;21525;41.240;16.500;2023-04-30T00:09:39;101216.88;;;24.22;62.85
35419;BME280;21525;41.240;16.500;2023-04-30T00:12:05;101223.75;;;24.26;62.49
35419;BME280;21525;41.240;16.500;2023-04-30T00:14:30;101222.94;;;23.95;63.25
35419;BME280;21525;41.240;16.500;2023-04-30T00:16:56;101217.44;;;23.98;62.67
35419;BME280;21525;41.240;16.500;2023-04-30T00:19:22;101209.09;;;24.47;59.99
35419;BME280;21525;41.240;16.500;2023-04-30T00:21:47;101209.59;;;24.25;61.22
35419;BME280;21525;41.240;16.500;2023-04-30T00:24:13;101206.06;;;23.96;61.67
35419;BME280;21525;41.240;16.500;2023-04-30T00:26:40;101210.47;;;24.26;61.27
35419;BME280;21525;41.240;16.500;2023-04-30T00:29:07;101211.56;;;24.22;62.83
35419;BME280;21525;41.240;16.500;2023-04-30T00:31:32;101208.81;;;24.23;64.06
35419;BME280;21525;41.240;16.500;2023-04-30T00:33:58;101222.03;;;24.25;64.03
35419;BME280;21525;41.240;16.500;2023-04-30T00:36:24;101217.38;;;24.28;63.93
35419;BME280;21525;41.240;16.500;2023-04-30T00:38:49;101216.44;;;24.29;64.76
35419;BME280;21525;41.240;16.500;2023-04-30T00:41:15;101209.94;;;24.48;63.79
35419;BME280;21525;41.240;16.500;2023-04-30T00:43:41;101216.53;;;24.28;65.15
35419;BME280;21525;41.240;16.500;2023-04-30T00:46:07;101221.53;;;24.61;63.16
35419;BME280;21525;41.240;16.500;2023-04-30T00:48:33;101219.34;;;24.39;63.06
35419;BME280;21525;41.240;16.500;2023-04-30T00:51:00;101219.97;;;24.71;62.94
35419;BME280;21525;41.240;16.500;2023-04-30T00:53:27;101220.47;;;24.63;63.44
35419;BME280;21525;41.240;16.500;2023-04-30T00:55:53;101206.72;;;24.57;64.33
35419;BME280;21525;41.240;16.500;2023-04-30T00:58:18;101213.38;;;24.21;65.50
35419;BME280;21525;41.240;16.500;2023-04-30T01:00:44;101209.28;;;24.16;65.89
35419;BME280;21525;41.240;16.500;2023-04-30T01:03:12;101216.50;;;23.99;67.74
35419;BME280;21525;41.240;16.500;2023-04-30T01:05:38;101202.25;;;24.43;64.58
35419;BME280;21525;41.240;16.500;2023-04-30T01:08:04;101210.91;;;24.04;66.21
35419;BME280;21525;41.240;16.500;2023-04-30T01:10:35;101211.34;;;24.10;65.43
35419;BME280;21525;41.240;16.500;2023-04-30T01:13:17;101206.91;;;24.11;66.85
35419;BME280;21525;41.240;16.500;2023-04-30T01:15:58;101204.44;;;24.22;66.54
35419;BME280;21525;41.240;16.500;2023-04-30T01:18:32;101203.69;;;24.20;65.56
35419;BME280;21525;41.240;16.500;2023-04-30T01:21:03;101211.53;;;24.07;66.47
35419;BME280;21525;41.240;16.500;2023-04-30T01:27:06;101222.34;;;24.04;67.08
35419;BME280;21525;41.240;16.500;2023-04-30T01:29:38;101220.94;;;24.13;66.69
35419;BME280;21525;41.240;16.500;2023-04-30T01:32:06;101218.97;;;24.02;67.54
35419;BME280;21525;41.240;16.500;2023-04-30T01:34:32;101213.63;;;24.17;67.57
35419;BME280;21525;41.240;16.500;2023-04-30T01:40:23;101209.09;;;24.19;66.88
35419;BME280;21525;41.240;16.500;2023-04-30T01:43:06;101207.75;;;24.40;66.91
35419;BME280;21525;41.240;16.500;2023-04-30T01:51:25;101220.91;;;24.29;67.81
35419;BME280;21525;41.240;16.500;2023-04-30T01:53:56;101209.19;;;24.17;68.19
35419;BME280;21525;41.240;16.500;2023-04-30T01:56:37;101210.06;;;24.03;69.52
35419;BME280;21525;41.240;16.500;2023-04-30T01:59:05;101212.50;;;23.92;68.62
35419;BME280;21525;41.240;16.500;2023-04-30T02:01:32;101217.50;;;23.68;70.94
35419;BME280;21525;41.240;16.500;2023-04-30T02:03:58;101211.63;;;23.77;71.04
35419;BME280;21525;41.240;16.500;2023-04-30T02:06:26;101208.50;;;24.13;69.06
35419;BME280;21525;41.240;16.500;2023-04-30T02:08:53;101212.31;;;23.95;70.08
35419;BME280;21525;41.240;16.500;2023-04-30T02:11:20;101209.63;;;23.81;68.81
35419;BME280;21525;41.240;16.500;2023-04-30T02:13:46;101202.72;;;24.21;68.36
35419;BME280;21525;41.240;16.500;2023-04-30T02:16:11;101207.94;;;24.08;68.74
35419;BME280;21525;41.240;16.500;2023-04-30T02:18:37;101203.19;;;23.71;67.48
35419;BME280;21525;41.240;16.500;2023-04-30T02:21:03;101215.75;;;23.97;66.59
35419;BME280;21525;41.240;16.500;2023-04-30T02:23:30;101224.97;;;23.76;67.95
35419;BME280;21525;41.240;16.500;2023-04-30T02:25:55;101225.22;;;24.01;67.92
35419;BME280;21525;41.240;16.500;2023-04-30T02:28:21;101210.63;;;23.34;71.52
35419;BME280;21525;41.240;16.500;2023-04-30T02:30:47;101225.81;;;23.32;70.09
35419;BME280;21525;41.240;16.500;2023-04-30T02:33:15;101223.38;;;22.82;70.27
35419;BME280;21525;41.240;16.500;2023-04-30T02:35:41;101219.16;;;23.09;67.44
35419;BME280;21525;41.240;16.500;2023-04-30T02:38:06;101233.44;;;23.23;65.47
35419;BME280;21525;41.240;16.500;2023-04-30T02:40:32;101224.13;;;23.45;64.54
35419;BME280;21525;41.240;16.500;2023-04-30T02:42:58;101223.50;;;23.10;66.40
35419;BME280;21525;41.240;16.500;2023-04-30T02:45:25;101228.22;;;22.74;70.58
35419;BME280;21525;41.240;16.500;2023-04-30T02:47:52;101219.97;;;22.31;72.13
35419;BME280;21525;41.240;16.500;2023-04-30T02:50:18;101216.53;;;22.94;71.54
35419;BME280;21525;41.240;16.500;2023-04-30T02:52:45;101226.09;;;23.72;67.90
35419;BME280;21525;41.240;16.500;2023-04-30T02:55:11;101228.22;;;23.51;66.32
35419;BME280;21525;41.240;16.500;2023-04-30T02:57:37;101239.69;;;23.52;67.38
35419;BME280;21525;41.240;16.500;2023-04-30T03:00:04;101244.63;;;23.28;67.79
35419;BME280;21525;41.240;16.500;2023-04-30T03:02:30;101249.09;;;23.27;68.49
35419;BME280;21525;41.240;16.500;2023-04-30T03:04:56;101255.41;;;22.77;72.48
35419;BME280;21525;41.240;16.500;2023-04-30T03:07:22;101248.59;;;23.21;68.94
35419;BME280;21525;41.240;16.500;2023-04-30T03:09:49;101255.63;;;23.06;72.10
35419;BME280;21525;41.240;16.500;2023-04-30T03:12:15;101258.38;;;23.04;70.61
35419;BME280;21525;41.240;16.500;2023-04-30T03:14:41;101245.81;;;21.93;75.01
35419;BME280;21525;41.240;16.500;2023-04-30T03:17:07;101251.94;;;22.44;72.81
35419;BME280;21525;41.240;16.500;2023-04-30T03:19:32;101246.88;;;22.72;67.23
35419;BME280;21525;41.240;16.500;2023-04-30T03:21:58;101256.06;;;22.17;67.40
35419;BME280;21525;41.240;16.500;2023-04-30T03:24:24;101255.72;;;22.89;66.71
35419;BME280;21525;41.240;16.500;2023-04-30T03:26:50;101265.59;;;22.21;69.83
35419;BME280;21525;41.240;16.500;2023-04-30T03:29:17;101269.47;;;22.13;74.08
35419;BME280;21525;41.240;16.500;2023-04-30T03:31:43;101257.88;;;22.49;73.10
35419;BME280;21525;41.240;16.500;2023-04-30T03:34:08;101263.69;;;22.56;71.82
35419;BME280;21525;41.240;16.500;2023-04-30T03:36:34;101269.84;;;23.05;69.50
35419;BME280;21525;41.240;16.500;2023-04-30T03:39:00;101264.94;;;23.13;70.61
35419;BME280;21525;41.240;16.500;2023-04-30T03:41:26;101263.66;;;23.20;68.97
35419;BME280;21525;41.240;16.500;2023-04-30T03:43:52;101256.47;;;23.68;65.96
35419;BME280;21525;41.240;16.500;2023-04-30T03:46:18;101264.53;;;22.89;67.48
35419;BME280;21525;41.240;16.500;2023-04-30T03:48:44;101249.53;;;23.20;65.99
35419;BME280;21525;41.240;16.500;2023-04-30T03:51:10;101244.91;;;23.23;62.00
35419;BME280;21525;41.240;16.500;2023-04-30T03:53:36;101256.00;;;22.51;65.23
35419;BME280;21525;41.240;16.500;2023-04-30T03:56:02;101254.25;;;22.34;66.97
35419;BME280;21525;41.240;16.500;2023-04-30T03:58:29;101247.47;;;23.09;66.88
35419;BME280;21525;41.240;16.500;2023-04-30T04:00:55;101254.34;;;22.82;66.20
35419;BME280;21525;41.240;16.500;2023-04-30T04:03:21;101253.59;;;22.13;69.11
35419;BME280;21525;41.240;16.500;2023-04-30T04:05:47;101258.72;;;22.50;66.14
35419;BME280;21525;41.240;16.500;2023-04-30T04:08:13;101253.66;;;22.45;66.35
35419;BME280;21525;41.240;16.500;2023-04-30T04:10:39;101258.19;;;22.10;68.91
35419;BME280;21525;41.240;16.500;2023-04-30T04:13:06;101255.41;;;22.62;67.49
35419;BME280;21525;41.240;16.500;2023-04-30T04:15:33;101255.63;;;21.91;71.40
35419;BME280;21525;41.240;16.500;2023-04-30T04:17:58;101245.97;;;22.40;70.89
35419;BME280;21525;41.240;16.500;2023-04-30T04:20:24;101253.06;;;21.90;74.25
35419;BME280;21525;41.240;16.500;2023-04-30T04:22:51;101259.81;;;21.95;75.64
35419;BME280;21525;41.240;16.500;2023-04-30T04:25:17;101267.97;;;21.03;80.96
35419;BME280;21525;41.240;16.500;2023-04-30T04:27:43;101266.84;;;21.96;77.82
35419;BME280;21525;41.240;16.500;2023-04-30T04:30:10;101273.59;;;22.36;74.95
35419;BME280;21525;41.240;16.500;2023-04-30T04:32:38;101274.38;;;22.38;75.78
35419;BME280;21525;41.240;16.500;2023-04-30T04:35:15;101286.00;;;22.52;74.74
35419;BME280;21525;41.240;16.500;2023-04-30T04:37:42;101280.44;;;22.40;76.74
35419;BME280;21525;41.240;16.500;2023-04-30T04:40:08;101274.69;;;22.15;78.13
35419;BME280;21525;41.240;16.500;2023-04-30T04:42:35;101270.50;;;22.44;78.93
35419;BME280;21525;41.240;16.500;2023-04-30T04:45:00;101273.13;;;22.61;76.32
35419;BME280;21525;41.240;16.500;2023-04-30T04:47:29;101269.84;;;22.56;74.43
35419;BME280;21525;41.240;16.500;2023-04-30T04:49:54;101270.78;;;22.39;75.75
35419;BME280;21525;41.240;16.500;2023-04-30T04:52:20;101273.06;;;22.45;75.98
35419;BME280;21525;41.240;16.500;2023-04-30T04:54:46;101280.28;;;22.75;74.43
35419;BME280;21525;41.240;16.500;2023-04-30T04:57:12;101276.56;;;22.79;74.56
35419;BME280;21525;41.240;16.500;2023-04-30T04:59:38;101280.00;;;23.12;73.78
35419;BME280;21525;41.240;16.500;2023-04-30T05:02:03;101289.84;;;22.95;73.72
35419;BME280;21525;41.240;16.500;2023-04-30T05:04:29;101291.25;;;23.02;74.73
35419;BME280;21525;41.240;16.500;2023-04-30T05:06:55;101294.03;;;23.15;74.79
35419;BME280;21525;41.240;16.500;2023-04-30T05:09:21;101289.25;;;23.37;74.58
35419;BME280;21525;41.240;16.500;2023-04-30T05:11:47;101299.34;;;23.30;73.57
35419;BME280;21525;41.240;16.500;2023-04-30T05:14:14;101300.56;;;22.60;76.38
35419;BME280;21525;41.240;16.500;2023-04-30T05:16:39;101300.50;;;22.77;78.25
35419;BME280;21525;41.240;16.500;2023-04-30T05:19:05;101297.63;;;22.82;78.28
35419;BME280;21525;41.240;16.500;2023-04-30T05:21:34;101291.56;;;22.96;76.30
35419;BME280;21525;41.240;16.500;2023-04-30T05:24:00;101281.13;;;22.93;77.46
35419;BME280;21525;41.240;16.500;2023-04-30T05:26:26;101278.53;;;23.23;74.54
35419;BME280;21525;41.240;16.500;2023-04-30T05:28:52;101279.84;;;23.00;74.19
35419;BME280;21525;41.240;16.500;2023-04-30T05:31:17;101283.63;;;22.96;74.41
35419;BME280;21525;41.240;16.500;2023-04-30T05:33:43;101285.06;;;23.01;74.82
35419;BME280;21525;41.240;16.500;2023-04-30T05:36:09;101280.09;;;22.46;78.19
35419;BME280;21525;41.240;16.500;2023-04-30T05:38:35;101278.94;;;22.68;77.79
35419;BME280;21525;41.240;16.500;2023-04-30T05:41:01;101279.19;;;22.63;76.96
35419;BME280;21525;41.240;16.500;2023-04-30T05:43:27;101275.31;;;22.86;75.45
35419;BME280;21525;41.240;16.500;2023-04-30T05:45:52;101273.34;;;22.41;75.63
35419;BME280;21525;41.240;16.500;2023-04-30T05:48:18;101279.34;;;22.76;75.14
35419;BME280;21525;41.240;16.500;2023-04-30T05:50:44;101275.84;;;22.60;76.91
35419;BME280;21525;41.240;16.500;2023-04-30T05:53:10;101281.91;;;22.95;74.76
35419;BME280;21525;41.240;16.500;2023-04-30T05:55:36;101287.91;;;22.98;74.08
35419;BME280;21525;41.240;16.500;2023-04-30T05:58:01;101280.53;;;23.03;74.00
35419;BME280;21525;41.240;16.500;2023-04-30T06:00:27;101289.94;;;23.09;72.88
35419;BME280;21525;41.240;16.500;2023-04-30T06:02:53;101292.34;;;22.98;71.71
35419;BME280;21525;41.240;16.500;2023-04-30T06:05:20;101288.34;;;23.06;71.61
35419;BME280;21525;41.240;16.500;2023-04-30T06:07:46;101287.22;;;22.95;70.57
35419;BME280;21525;41.240;16.500;2023-04-30T06:10:11;101300.81;;;23.20;69.46
35419;BME280;21525;41.240;16.500;2023-04-30T06:12:37;101293.69;;;23.21;70.51
35419;BME280;21525;41.240;16.500;2023-04-30T06:15:05;101297.25;;;22.72;72.99
35419;BME280;21525;41.240;16.500;2023-04-30T06:17:31;101296.88;;;23.11;71.22
35419;BME280;21525;41.240;16.500;2023-04-30T06:19:57;101296.78;;;22.82;73.31
35419;BME280;21525;41.240;16.500;2023-04-30T06:22:25;101292.84;;;22.40;77.26
35419;BME280;21525;41.240;16.500;2023-04-30T06:24:51;101294.50;;;22.58;73.42
35419;BME280;21525;41.240;16.500;2023-04-30T06:27:17;101297.06;;;22.75;72.59
35419;BME280;21525;41.240;16.500;2023-04-30T06:29:42;101301.72;;;22.39;75.81
35419;BME280;21525;41.240;16.500;2023-04-30T06:32:08;101300.28;;;23.13;72.10
35419;BME280;21525;41.240;16.500;2023-04-30T06:34:34;101297.13;;;23.07;70.34
35419;BME280;21525;41.240;16.500;2023-04-30T06:37:00;101303.63;;;23.17;69.82
35419;BME280;21525;41.240;16.500;2023-04-30T06:39:26;101290.97;;;22.91;71.57
35419;BME280;21525;41.240;16.500;2023-04-30T06:41:52;101294.72;;;22.87;72.87
35419;BME280;21525;41.240;16.500;2023-04-30T06:44:20;101299.03;;;23.05;72.45
35419;BME280;21525;41.240;16.500;2023-04-30T06:46:46;101295.78;;;23.00;72.75
35419;BME280;21525;41.240;16.500;2023-04-30T06:49:11;101296.06;;;22.12;77.93
35419;BME280;21525;41.240;16.500;2023-04-30T06:51:37;101296.16;;;22.43;76.49
35419;BME280;21525;41.240;16.500;2023-04-30T06:54:03;101302.19;;;22.63;76.88
35419;BME280;21525;41.240;16.500;2023-04-30T06:56:29;101293.25;;;22.32;79.60
35419;BME280;21525;41.240;16.500;2023-04-30T06:58:55;101301.28;;;22.13;81.95
35419;BME280;21525;41.240;16.500;2023-04-30T07:01:20;101293.19;;;23.30;73.67
35419;BME280;21525;41.240;16.500;2023-04-30T07:03:46;101293.53;;;23.24;72.04
35419;BME280;21525;41.240;16.500;2023-04-30T07:06:12;101290.22;;;23.50;70.99
35419;BME280;21525;41.240;16.500;2023-04-30T07:08:37;101293.16;;;23.61;71.04
35419;BME280;21525;41.240;16.500;2023-04-30T07:11:05;101295.34;;;23.99;68.23
35419;BME280;21525;41.240;16.500;2023-04-30T07:13:31;101305.84;;;23.56;70.88
35419;BME280;21525;41.240;16.500;2023-04-30T07:15:57;101304.31;;;23.36;71.52
35419;BME280;21525;41.240;16.500;2023-04-30T07:18:23;101311.13;;;23.40;74.23
35419;BME280;21525;41.240;16.500;2023-04-30T07:20:49;101305.78;;;23.72;72.56
35419;BME280;21525;41.240;16.500;2023-04-30T07:23:15;101300.44;;;23.88;72.09
35419;BME280;21525;41.240;16.500;2023-04-30T07:25:41;101308.56;;;23.70;72.69
35419;BME280;21525;41.240;16.500;2023-04-30T07:28:07;101313.19;;;23.51;73.59
35419;BME280;21525;41.240;16.500;2023-04-30T07:30:32;101319.22;;;23.39;74.44
35419;BME280;21525;41.240;16.500;2023-04-30T07:32:58;101316.53;;;23.70;72.67
35419;BME280;21525;41.240;16.500;2023-04-30T07:35:24;101325.72;;;23.02;77.59
35419;BME280;21525;41.240;16.500;2023-04-30T07:37:50;101319.53;;;23.17;78.46
35419;BME280;21525;41.240;16.500;2023-04-30T07:40:15;101316.19;;;22.49;81.06
35419;BME280;21525;41.240;16.500;2023-04-30T07:42:41;101316.09;;;23.46;77.13
35419;BME280;21525;41.240;16.500;2023-04-30T07:45:07;101326.31;;;23.07;77.04
35419;BME280;21525;41.240;16.500;2023-04-30T07:47:33;101327.78;;;23.60;78.17
35419;BME280;21525;41.240;16.500;2023-04-30T07:49:59;101329.91;;;23.69;76.89
35419;BME280;21525;41.240;16.500;2023-04-30T07:52:25;101341.88;;;23.44;77.65
35419;BME280;21525;41.240;16.500;2023-04-30T07:54:51;101339.94;;;23.32;78.14
35419;BME280;21525;41.240;16.500;2023-04-30T07:57:16;101333.59;;;23.96;74.57
35419;BME280;21525;41.240;16.500;2023-04-30T07:59:42;101333.91;;;22.82;80.23
35419;BME280;21525;41.240;16.500;2023-04-30T08:02:08;101332.75;;;23.03;80.09
35419;BME280;21525;41.240;16.500;2023-04-30T08:04:34;101323.81;;;22.88;81.99
35419;BME280;21525;41.240;16.500;2023-04-30T08:07:00;101327.69;;;22.32;85.08
35419;BME280;21525;41.240;16.500;2023-04-30T08:09:29;101330.75;;;22.07;90.05
35419;BME280;21525;41.240;16.500;2023-04-30T08:11:55;101327.66;;;22.50;88.46
35419;BME280;21525;41.240;16.500;2023-04-30T08:14:20;101336.56;;;22.14;92.74
35419;BME280;21525;41.240;16.500;2023-04-30T08:16:46;101341.22;;;21.92;94.24
35419;BME280;21525;41.240;16.500;2023-04-30T08:19:12;101343.81;;;21.93;96.54
35419;BME280;21525;41.240;16.500;2023-04-30T08:21:38;101348.50;;;22.40;94.71
35419;BME280;21525;41.240;16.500;2023-04-30T08:24:04;101342.41;;;22.38;89.87
35419;BME280;21525;41.240;16.500;2023-04-30T08:26:30;101342.13;;;22.93;85.02
35419;BME280;21525;41.240;16.500;2023-04-30T08:28:55;101340.78;;;23.01;85.77
35419;BME280;21525;41.240;16.500;2023-04-30T08:31:21;101341.28;;;23.71;80.31
35419;BME280;21525;41.240;16.500;2023-04-30T08:33:47;101344.38;;;22.67;86.70
35419;BME280;21525;41.240;16.500;2023-04-30T08:36:13;101343.38;;;23.34;81.34
35419;BME280;21525;41.240;16.500;2023-04-30T08:38:39;101343.97;;;23.85;79.64
35419;BME280;21525;41.240;16.500;2023-04-30T08:41:11;101341.91;;;23.60;80.31
35419;BME280;21525;41.240;16.500;2023-04-30T08:43:38;101338.38;;;24.20;76.77
35419;BME280;21525;41.240;16.500;2023-04-30T08:46:04;101340.75;;;23.49;78.78
35419;BME280;21525;41.240;16.500;2023-04-30T08:48:30;101342.63;;;24.08;75.40
35419;BME280;21525;41.240;16.500;2023-04-30T08:51:03;101343.38;;;23.80;76.67
35419;BME280;21525;41.240;16.500;2023-04-30T08:53:30;101344.03;;;24.43;73.38
35419;BME280;21525;41.240;16.500;2023-04-30T08:55:59;101343.66;;;23.44;77.98
35419;BME280;21525;41.240;16.500;2023-04-30T08:58:24;101351.16;;;22.40;85.85
35419;BME280;21525;41.240;16.500;2023-04-30T09:00:50;101346.03;;;23.96;78.76
35419;BME280;21525;41.240;16.500;2023-04-30T09:03:16;101339.94;;;24.38;76.28
35419;BME280;21525;41.240;16.500;2023-04-30T09:05:42;101350.78;;;23.43;81.57
35419;BME280;21525;41.240;16.500;2023-04-30T09:08:08;101340.63;;;23.67;80.33
35419;BME280;21525;41.240;16.500;2023-04-30T09:10:34;101342.50;;;23.65;80.88
35419;BME280;21525;41.240;16.500;2023-04-30T09:13:05;101343.53;;;23.31;82.16
35419;BME280;21525;41.240;16.500;2023-04-30T09:15:33;101334.75;;;23.76;78.12
35419;BME280;21525;41.240;16.500;2023-04-30T09:20:34;101339.84;;;22.36;89.52
35419;BME280;21525;41.240;16.500;2023-04-30T09:23:10;101348.13;;;22.63;88.64
35419;BME280;21525;41.240;16.500;2023-04-30T09:25:40;101346.94;;;23.02;87.22
35419;BME280;21525;41.240;16.500;2023-04-30T09:28:11;101348.28;;;23.40;85.82
35419;BME280;21525;41.240;16.500;2023-04-30T09:30:37;101348.91;;;22.98;86.86
35419;BME280;21525;41.240;16.500;2023-04-30T09:33:03;101340.25;;;24.03;80.76
35419;BME280;21525;41.240;16.500;2023-04-30T09:35:31;101343.28;;;23.36;83.45
35419;BME280;21525;41.240;16.500;2023-04-30T09:38:00;101350.53;;;23.17;83.01
35419;BME280;21525;41.240;16.500;2023-04-30T09:40:40;101349.34;;;22.23;88.62
35419;BME280;21525;41.240;16.500;2023-04-30T09:43:07;101347.06;;;21.98;91.44
35419;BME280;21525;41.240;16.500;2023-04-30T09:45:41;101336.25;;;22.20;94.03
35419;BME280;21525;41.240;16.500;2023-04-30T09:48:10;101343.53;;;23.00;87.62
35419;BME280;21525;41.240;16.500;2023-04-30T09:50:39;101337.38;;;22.99;83.73
35419;BME280;21525;41.240;16.500;2023-04-30T09:53:06;101333.91;;;23.44;83.39
35419;BME280;21525;41.240;16.500;2023-04-30T09:55:36;101332.03;;;23.46;83.15
35419;BME280;21525;41.240;16.500;2023-04-30T09:58:04;101330.19;;;22.68;86.06
35419;BME280;21525;41.240;16.500;2023-04-30T10:00:32;101330.59;;;23.25;82.96
35419;BME280;21525;41.240;16.500;2023-04-30T10:03:03;101331.19;;;22.99;82.68
35419;BME280;21525;41.240;16.500;2023-04-30T10:05:30;101321.84;;;24.00;77.96
35419;BME280;21525;41.240;16.500;2023-04-30T10:07:57;101323.75;;;23.05;84.14
35419;BME280;21525;41.240;16.500;2023-04-30T10:10:25;101321.06;;;24.28;77.70
35419;BME280;21525;41.240;16.500;2023-04-30T10:12:55;101323.59;;;23.86;76.37
35419;BME280;21525;41.240;16.500;2023-04-30T10:15:29;101327.00;;;23.58;77.50
35419;BME280;21525;41.240;16.500;2023-04-30T10:18:04;101329.03;;;22.90;84.97
35419;BME280;21525;41.240;16.500;2023-04-30T10:20:31;101313.88;;;24.00;77.75
35419;BME280;21525;41.240;16.500;2023-04-30T10:22:59;101307.53;;;24.17;76.69
35419;BME280;21525;41.240;16.500;2023-04-30T10:25:25;101313.81;;;22.60;82.98
35419;BME280;21525;41.240;16.500;2023-04-30T10:27:52;101311.94;;;22.12;88.08
35419;BME280;21525;41.240;16.500;2023-04-30T10:30:20;101306.19;;;22.54;87.95
35419;BME280;21525;41.240;16.500;2023-04-30T10:32:58;101310.22;;;22.61;86.58
35419;BME280;21525;41.240;16.500;2023-04-30T10:35:39;101297.84;;;24.02;78.71
35419;BME280;21525;41.240;16.500;2023-04-30T10:38:20;101298.22;;;24.24;77.65
35419;BME280;21525;41.240;16.500;2023-04-30T10:40:46;101299.06;;;23.51;79.44
35419;BME280;21525;41.240;16.500;2023-04-30T10:43:12;101293.06;;;23.47;76.79
35419;BME280;21525;41.240;16.500;2023-04-30T10:45:42;101303.13;;;23.26;83.19
35419;BME280;21525;41.240;16.500;2023-04-30T10:48:08;101293.16;;;23.45;81.27
35419;BME280;21525;41.240;16.500;2023-04-30T10:50:44;101285.63;;;23.84;77.54
35419;BME280;21525;41.240;16.500;2023-04-30T10:53:12;101289.66;;;23.13;84.12
35419;BME280;21525;41.240;16.500;2023-04-30T10:55:59;101287.69;;;23.33;84.25
35419;BME280;21525;41.240;16.500;2023-04-30T10:58:33;101275.16;;;23.66;82.38
35419;BME280;21525;41.240;16.500;2023-04-30T11:01:07;101280.97;;;24.74;76.69
35419;BME280;21525;41.240;16.500;2023-04-30T11:03:34;101278.84;;;24.08;75.79
35419;BME280;21525;41.240;16.500;2023-04-30T11:06:07;101277.56;;;24.43;73.69
35419;BME280;21525;41.240;16.500;2023-04-30T11:08:34;101276.63;;;24.44;72.76
35419;BME280;21525;41.240;16.500;2023-04-30T11:11:00;101268.94;;;25.36;66.46
35419;BME280;21525;41.240;16.500;2023-04-30T11:13:27;101267.41;;;24.50;69.64
35419;BME280;21525;41.240;16.500;2023-04-30T11:15:53;101271.22;;;23.88;71.05
35419;BME280;21525;41.240;16.500;2023-04-30T11:18:19;101267.66;;;23.27;75.32
35419;BME280;21525;41.240;16.500;2023-04-30T11:20:49;101262.84;;;24.38;72.49
35419;BME280;21525;41.240;16.500;2023-04-30T11:23:22;101266.69;;;23.60;75.95
35419;BME280;21525;41.240;16.500;2023-04-30T11:25:48;101258.38;;;23.66;74.26
35419;BME280;21525;41.240;16.500;2023-04-30T11:28:18;101269.09;;;24.37;69.88
35419;BME280;21525;41.240;16.500;2023-04-30T11:30:53;101267.16;;;24.10;72.36
35419;BME280;21525;41.240;16.500;2023-04-30T11:33:21;101270.56;;;23.38;77.98
35419;BME280;21525;41.240;16.500;2023-04-30T11:35:48;101267.53;;;23.44;79.27
35419;BME280;21525;41.240;16.500;2023-04-30T11:38:20;101266.94;;;23.71;77.60
35419;BME280;21525;41.240;16.500;2023-04-30T11:40:49;101269.22;;;23.31;77.10
35419;BME280;21525;41.240;16.500;2023-04-30T11:43:28;101261.56;;;24.15;73.81
35419;BME280;21525;41.240;16.500;2023-04-30T11:46:14;101256.13;;;23.12;79.76
35419;BME280;21525;41.240;16.500;2023-04-30T11:48:48;101256.16;;;24.02;74.90
35419;BME280;21525;41.240;16.500;2023-04-30T11:53:41;101262.56;;;22.93;85.75
35419;BME280;21525;41.240;16.500;2023-04-30T11:56:07;101261.00;;;22.89;84.91
35419;BME280;21525;41.240;16.500;2023-04-30T11:58:36;101258.25;;;23.37;82.09
35419;BME280;21525;41.240;16.500;2023-04-30T12:01:05;101265.63;;;22.85;84.87
35419;BME280;21525;41.240;16.500;2023-04-30T12:03:32;101255.44;;;23.09;82.97
35419;BME280;21525;41.240;16.500;2023-04-30T12:05:58;101248.66;;;23.95;77.30
35419;BME280;21525;41.240;16.500;2023-04-30T12:08:24;101245.81;;;23.98;78.94
35419;BME280;21525;41.240;16.500;2023-04-30T12:10:49;101246.50;;;24.58;73.86
35419;BME280;21525;41.240;16.500;2023-04-30T12:13:15;101248.03;;;24.48;73.93
35419;BME280;21525;41.240;16.500;2023-04-30T12:15:41;101248.56;;;24.10;74.81
35419;BME280;21525;41.240;16.500;2023-04-30T12:18:11;101248.69;;;24.37;71.83
35419;BME280;21525;41.240;16.500;2023-04-30T12:20:38;101250.47;;;24.23;72.52
35419;BME280;21525;41.240;16.500;2023-04-30T12:23:05;101239.44;;;25.00;69.84
35419;BME280;21525;41.240;16.500;2023-04-30T12:25:39;101244.53;;;24.33;71.83
35419;BME280;21525;41.240;16.500;2023-04-30T12:28:05;101234.81;;;24.47;69.98
35419;BME280;21525;41.240;16.500;2023-04-30T12:30:31;101239.59;;;23.23;76.46
35419;BME280;21525;41.240;16.500;2023-04-30T12:32:58;101234.97;;;23.87;77.19
35419;BME280;21525;41.240;16.500;2023-04-30T12:35:27;101227.31;;;24.39;71.57
35419;BME280;21525;41.240;16.500;2023-04-30T12:38:04;101233.25;;;23.10;78.58
35419;BME280;21525;41.240;16.500;2023-04-30T12:40:30;101231.41;;;22.81;82.21
35419;BME280;21525;41.240;16.500;2023-04-30T12:43:07;101218.03;;;24.03;77.47
35419;BME280;21525;41.240;16.500;2023-04-30T12:45:51;101219.78;;;22.99;80.11
35419;BME280;21525;41.240;16.500;2023-04-30T12:48:19;101211.06;;;24.15;73.57
35419;BME280;21525;41.240;16.500;2023-04-30T12:50:59;101214.94;;;23.21;79.87
35419;BME280;21525;41.240;16.500;2023-04-30T12:53:26;101204.16;;;24.12;72.44
35419;BME280;21525;41.240;16.500;2023-04-30T12:56:12;101204.69;;;23.15;78.42
35419;BME280;21525;41.240;16.500;2023-04-30T12:58:40;101204.22;;;23.23;76.84
35419;BME280;21525;41.240;16.500;2023-04-30T13:01:17;101189.66;;;24.04;75.14